createdAt,value
2022-08-29T00:01:12.717Z,3.60
2022-08-29T00:03:42.081Z,3.80
2022-08-29T00:06:10.618Z,3.37
2022-08-29T00:08:37.447Z,3.83
2022-08-29T00:11:06.666Z,3.63
2022-08-29T00:13:45.605Z,3.50
2022-08-29T00:16:12.704Z,3.73
2022-08-29T00:18:40.056Z,4.20
2022-08-29T00:21:14.503Z,3.63
2022-08-29T00:23:43.954Z,3.80
2022-08-29T00:26:10.776Z,3.93
2022-08-29T00:28:41.376Z,3.43
2022-08-29T00:31:12.978Z,3.80
2022-08-29T00:33:39.768Z,3.57
2022-08-29T00:36:07.208Z,3.80
2022-08-29T00:38:35.473Z,3.77
2022-08-29T00:41:02.417Z,3.67
2022-08-29T00:43:33.372Z,3.73
2022-08-29T00:46:18.675Z,3.83
2022-08-29T00:48:48.204Z,3.50
2022-08-29T00:51:19.073Z,4.07
2022-08-29T00:53:48.444Z,3.67
2022-08-29T00:56:16.168Z,3.60
2022-08-29T00:58:50.073Z,3.87
2022-08-29T01:01:17.371Z,3.73
2022-08-29T01:03:44.211Z,3.30
2022-08-29T01:06:19.725Z,3.90
2022-08-29T01:08:46.753Z,3.43
2022-08-29T01:11:34.737Z,3.50
2022-08-29T01:14:02.673Z,3.63
2022-08-29T01:16:30.759Z,3.70
2022-08-29T01:19:01.069Z,3.27
2022-08-29T01:22:15.558Z,3.30
2022-08-29T01:24:53.077Z,3.47
2022-08-29T01:27:25.512Z,3.97
2022-08-29T01:29:52.386Z,3.50
2022-08-29T01:32:19.313Z,3.77
2022-08-29T01:34:46.127Z,3.80
2022-08-29T01:37:15.272Z,3.53
2022-08-29T01:39:43.959Z,4.23
2022-08-29T01:42:20.997Z,3.90
2022-08-29T01:44:52.908Z,3.47
2022-08-29T01:47:20.213Z,3.97
2022-08-29T01:49:47.052Z,3.87
2022-08-29T01:52:13.932Z,4.00
2022-08-29T01:54:47.769Z,3.90
2022-08-29T01:57:16.219Z,3.90
2022-08-29T01:59:43.774Z,3.63
2022-08-29T02:02:18.127Z,3.70
2022-08-29T02:04:47.103Z,3.67
2022-08-29T02:07:17.573Z,4.30
2022-08-29T02:09:45.546Z,3.97
2022-08-29T02:12:13.773Z,3.97
2022-08-29T02:14:40.837Z,4.20
2022-08-29T02:17:08.419Z,3.80
2022-08-29T02:19:36.319Z,3.87
2022-08-29T02:22:03.678Z,3.40
2022-08-29T02:24:38.005Z,3.50
2022-08-29T02:27:04.736Z,3.60
2022-08-29T02:29:37.168Z,3.37
2022-08-29T02:32:07.118Z,3.50
2022-08-29T02:34:35.213Z,3.33
2022-08-29T02:37:02.533Z,3.37
2022-08-29T02:39:29.536Z,3.60
2022-08-29T02:41:56.675Z,3.20
2022-08-29T02:44:23.532Z,3.97
2022-08-29T02:46:50.688Z,3.67
2022-08-29T02:49:17.501Z,4.13
2022-08-29T02:51:45.087Z,3.60
2022-08-29T02:54:14.983Z,4.00
2022-08-29T02:56:42.048Z,4.03
2022-08-29T02:59:08.823Z,3.33
2022-08-29T03:01:36.320Z,4.10
2022-08-29T03:04:03.343Z,3.57
2022-08-29T03:06:30.003Z,3.70
2022-08-29T03:08:56.730Z,4.20
2022-08-29T03:11:24.094Z,4.37
2022-08-29T03:13:50.738Z,3.97
2022-08-29T03:16:18.323Z,4.00
2022-08-29T03:18:52.880Z,4.00
2022-08-29T03:21:22.347Z,3.57
2022-08-29T03:23:50.255Z,4.00
2022-08-29T03:26:17.765Z,3.40
2022-08-29T03:28:44.740Z,3.53
2022-08-29T03:31:18.153Z,4.07
2022-08-29T03:33:45.021Z,3.70
2022-08-29T03:36:13.913Z,4.10
2022-08-29T03:38:44.015Z,4.00
2022-08-29T03:41:13.463Z,3.70
2022-08-29T03:43:42.590Z,3.70
2022-08-29T03:46:11.637Z,3.57
2022-08-29T03:48:38.372Z,3.90
2022-08-29T03:51:05.167Z,3.73
2022-08-29T03:53:32.961Z,4.30
2022-08-29T03:55:59.862Z,3.40
2022-08-29T03:58:30.057Z,4.23
2022-08-29T04:00:56.744Z,4.17
2022-08-29T04:03:28.352Z,3.67
2022-08-29T04:05:59.237Z,3.93
2022-08-29T04:08:26.104Z,3.93
2022-08-29T04:10:52.775Z,3.70
2022-08-29T04:13:19.478Z,4.00
2022-08-29T04:15:46.244Z,3.40
2022-08-29T04:18:13.057Z,3.77
2022-08-29T04:20:45.105Z,3.80
2022-08-29T04:23:15.166Z,3.40
2022-08-29T04:26:07.269Z,3.50
2022-08-29T04:28:44.046Z,4.27
2022-08-29T04:31:26.120Z,3.80
2022-08-29T04:34:07.117Z,3.87
2022-08-29T04:36:46.556Z,3.90
2022-08-29T04:39:14.210Z,3.50
2022-08-29T04:41:41.241Z,3.90
2022-08-29T04:44:17.466Z,3.70
2022-08-29T04:46:44.255Z,4.70
2022-08-29T04:49:13.645Z,4.70
2022-08-29T04:51:51.901Z,4.10
2022-08-29T04:54:23.280Z,3.80
2022-08-29T04:56:50.039Z,4.30
2022-08-29T04:59:20.571Z,4.43
2022-08-29T05:02:10.443Z,4.27
2022-08-29T05:04:56.431Z,4.00
2022-08-29T05:07:43.461Z,4.03
2022-08-29T05:10:26.820Z,4.13
2022-08-29T05:13:04.271Z,4.27
2022-08-29T05:15:44.565Z,4.20
2022-08-29T05:18:16.096Z,4.30
2022-08-29T05:20:52.925Z,4.30
2022-08-29T05:23:45.740Z,3.70
2022-08-29T05:26:15.085Z,3.70
2022-08-29T05:29:23.862Z,3.40
2022-08-29T05:32:08.337Z,3.63
2022-08-29T05:34:53.340Z,3.87
2022-08-29T05:37:54.280Z,3.70
2022-08-29T05:40:29.098Z,4.10
2022-08-29T05:43:09.195Z,3.70
2022-08-29T05:45:53.093Z,4.33
2022-08-29T05:48:33.955Z,3.00
2022-08-29T05:51:13.999Z,3.80
2022-08-29T05:53:47.728Z,3.50
2022-08-29T05:56:30.691Z,4.03
2022-08-29T05:59:13.783Z,3.80
2022-08-29T06:01:52.907Z,3.80
2022-08-29T06:07:08.444Z,3.50
2022-08-29T06:09:54.011Z,3.40
2022-08-29T06:12:28.710Z,4.50
2022-08-29T06:14:57.518Z,3.87
2022-08-29T06:17:24.461Z,4.17
2022-08-29T06:20:06.406Z,3.50
2022-08-29T06:22:46.100Z,3.67
2022-08-29T06:25:49.504Z,4.00
2022-08-29T06:28:23.842Z,4.20
2022-08-29T06:31:34.675Z,4.30
2022-08-29T06:34:05.342Z,4.07
2022-08-29T06:36:38.163Z,4.20
2022-08-29T06:39:09.817Z,3.70
2022-08-29T06:41:46.206Z,3.80
2022-08-29T06:44:24.105Z,4.27
2022-08-29T06:46:56.309Z,4.50
2022-08-29T06:49:36.493Z,3.60
2022-08-29T06:52:15.407Z,3.70
2022-08-29T06:54:52.873Z,3.67
2022-08-29T06:57:20.620Z,3.40
2022-08-29T06:59:52.280Z,3.80
2022-08-29T07:02:21.444Z,3.70
2022-08-29T07:22:56.919Z,3.67
2022-08-29T07:25:40.179Z,3.70
2022-08-29T07:37:27.160Z,3.77
2022-08-29T07:41:21.425Z,4.00
2022-08-29T07:52:17.275Z,4.40
2022-08-29T07:55:15.775Z,3.80
2022-08-29T07:58:51.147Z,3.97
2022-08-29T08:03:23.294Z,4.33
2022-08-29T08:04:52.804Z,4.10
2022-08-29T08:07:45.849Z,4.00
2022-08-29T08:17:16.679Z,4.60
2022-08-29T08:23:00.783Z,3.63
2022-08-29T08:26:02.702Z,4.60
2022-08-29T08:35:53.981Z,4.67
2022-08-29T08:55:31.298Z,4.50
2022-08-29T09:01:36.574Z,4.63
2022-08-29T09:08:26.799Z,4.70
2022-08-29T09:11:32.282Z,4.40
2022-08-29T09:15:01.758Z,4.80
2022-08-29T09:24:57.601Z,5.20
2022-08-29T09:27:58.448Z,4.80
2022-08-29T09:35:08.408Z,5.30
2022-08-29T09:38:57.865Z,4.53
2022-08-29T09:45:56.820Z,4.77
2022-08-29T09:49:10.063Z,4.90
2022-08-29T09:54:56.687Z,5.10
2022-08-29T09:57:26.957Z,4.90
2022-08-29T10:10:54.345Z,5.20
2022-08-29T10:14:12.984Z,4.70
2022-08-29T10:17:30.234Z,5.30
2022-08-29T10:20:30.924Z,5.73
2022-08-29T10:23:34.254Z,5.60
2022-08-29T10:26:21.189Z,5.53
2022-08-29T10:32:16.572Z,5.83
2022-08-29T10:35:03.745Z,5.53
2022-08-29T10:38:01.558Z,6.00
2022-08-29T10:41:16.368Z,5.90
2022-08-29T10:44:11.806Z,6.13
2022-08-29T10:48:01.133Z,5.50
2022-08-29T10:51:17.405Z,5.77
2022-08-29T10:54:40.781Z,5.47
2022-08-29T10:57:27.399Z,5.60
2022-08-29T11:00:28.192Z,5.30
2022-08-29T11:03:57.462Z,5.47
2022-08-29T11:06:39.948Z,5.60
2022-08-29T11:23:27.121Z,5.50
2022-08-29T11:26:32.897Z,5.13
2022-08-29T11:29:41.531Z,5.00
2022-08-29T11:34:37.210Z,4.80
2022-08-29T11:40:06.599Z,4.40
2022-08-29T11:42:52.838Z,5.43
2022-08-29T11:45:29.669Z,5.17
2022-08-29T11:48:18.048Z,5.30
2022-08-29T11:50:49.265Z,4.57
2022-08-29T11:53:39.484Z,4.23
2022-08-29T11:56:36.047Z,4.67
2022-08-29T11:59:16.083Z,4.30
2022-08-29T12:02:03.638Z,4.27
2022-08-29T12:05:10.832Z,4.43
2022-08-29T12:08:36.403Z,4.30
2022-08-29T12:11:27.364Z,4.30
2022-08-29T12:13:58.513Z,4.57
2022-08-29T12:16:47.098Z,4.77
2022-08-29T12:19:55.822Z,4.90
2022-08-29T12:22:56.271Z,5.20
2022-08-29T12:25:44.873Z,5.10
2022-08-29T12:28:31.124Z,5.17
2022-08-29T12:31:08.212Z,4.60
2022-08-29T12:34:14.549Z,4.87
2022-08-29T12:37:14.928Z,4.40
2022-08-29T12:39:53.256Z,4.60
2022-08-29T12:43:17.872Z,4.10
2022-08-29T12:45:47.402Z,5.50
2022-08-29T12:48:34.042Z,4.30
2022-08-29T12:51:13.933Z,4.40
2022-08-29T12:54:01.505Z,4.70
2022-08-29T12:56:46.190Z,4.10
2022-08-29T12:59:22.811Z,4.63
2022-08-29T13:01:57.013Z,4.37
2022-08-29T13:04:46.981Z,4.90
2022-08-29T13:10:00.470Z,4.30
2022-08-29T13:12:43.501Z,4.07
2022-08-29T13:15:33.106Z,4.00
2022-08-29T13:18:15.142Z,4.50
2022-08-29T13:21:07.747Z,4.37
2022-08-29T13:24:01.674Z,3.97
2022-08-29T13:26:41.682Z,4.03
2022-08-29T13:29:27.033Z,4.20
2022-08-29T13:32:52.732Z,4.20
2022-08-29T13:35:38.466Z,4.10
2022-08-29T13:38:56.703Z,4.60
2022-08-29T13:41:30.215Z,4.63
2022-08-29T13:44:21.087Z,3.93
2022-08-29T13:47:14.750Z,4.20
2022-08-29T13:49:53.153Z,3.97
2022-08-29T13:53:03.178Z,4.23
2022-08-29T13:58:21.601Z,4.07
2022-08-29T14:00:59.626Z,4.80
2022-08-29T14:06:45.565Z,4.17
2022-08-29T14:09:28.466Z,3.57
2022-08-29T14:12:33.830Z,3.50
2022-08-29T14:15:09.642Z,4.27
2022-08-29T14:17:42.689Z,4.23
2022-08-29T14:20:26.460Z,3.83
2022-08-29T14:23:13.475Z,3.97
2022-08-29T14:25:45.922Z,4.00
2022-08-29T14:28:16.075Z,3.80
2022-08-29T14:30:51.922Z,4.03
2022-08-29T14:33:26.471Z,3.90
2022-08-29T14:36:07.420Z,4.20
2022-08-29T14:38:34.449Z,4.30
2022-08-29T14:41:07.211Z,4.40
2022-08-29T14:43:52.808Z,3.77
2022-08-29T14:46:23.463Z,3.93
2022-08-29T14:48:50.507Z,4.70
2022-08-29T14:51:17.284Z,4.00
2022-08-29T14:53:54.920Z,4.80
2022-08-29T14:56:50.321Z,3.93
2022-08-29T14:59:21.850Z,4.30
2022-08-29T15:01:54.246Z,4.97
2022-08-29T15:04:46.277Z,4.33
2022-08-29T15:07:13.517Z,4.03
2022-08-29T15:09:42.063Z,4.07
2022-08-29T15:12:16.557Z,3.97
2022-08-29T15:14:44.611Z,4.20
2022-08-29T15:17:13.752Z,4.30
2022-08-29T15:20:34.294Z,4.00
2022-08-29T15:22:34.219Z,4.40
2022-08-29T15:25:02.165Z,4.47
2022-08-29T15:27:31.590Z,3.77
2022-08-29T15:30:04.410Z,3.97
2022-08-29T15:32:32.598Z,4.47
2022-08-29T15:34:59.436Z,4.00
2022-08-29T15:37:37.742Z,4.90
2022-08-29T15:40:10.960Z,4.10
2022-08-29T15:42:42.110Z,5.03
2022-08-29T15:45:14.702Z,3.93
2022-08-29T15:48:03.096Z,4.40
2022-08-29T15:50:49.184Z,4.60
2022-08-29T15:54:11.171Z,4.70
2022-08-29T15:56:51.431Z,4.57
2022-08-29T16:02:37.910Z,3.93
2022-08-29T16:05:11.808Z,4.83
2022-08-29T16:07:42.811Z,4.53
2022-08-29T16:10:11.547Z,4.33
2022-08-29T16:12:42.101Z,4.10
2022-08-29T16:15:10.097Z,4.33
2022-08-29T16:17:39.685Z,4.87
2022-08-29T16:20:13.767Z,4.27
2022-08-29T16:22:47.319Z,4.03
2022-08-29T16:25:43.026Z,4.53
2022-08-29T16:28:15.776Z,4.50
2022-08-29T16:30:53.803Z,4.50
2022-08-29T16:33:23.337Z,4.80
2022-08-29T16:35:50.307Z,4.53
2022-08-29T16:38:19.953Z,4.03
2022-08-29T16:40:46.980Z,3.93
2022-08-29T16:43:16.914Z,4.43
2022-08-29T16:45:43.859Z,3.33
2022-08-29T16:48:15.606Z,4.20
2022-08-29T16:50:42.707Z,3.80
2022-08-29T16:53:09.363Z,4.20
2022-08-29T16:55:36.117Z,4.00
2022-08-29T16:58:22.786Z,3.80
2022-08-29T17:00:55.589Z,4.30
2022-08-29T17:03:22.339Z,3.60
2022-08-29T17:05:49.463Z,3.97
2022-08-29T17:08:16.640Z,3.60
2022-08-29T17:10:43.493Z,3.73
2022-08-29T17:13:12.765Z,3.37
2022-08-29T17:15:40.284Z,3.57
2022-08-29T17:18:07.323Z,3.20
2022-08-29T17:20:37.599Z,3.37
2022-08-29T17:23:10.082Z,3.40
2022-08-29T17:25:40.607Z,3.30
2022-08-29T17:28:19.426Z,3.13
2022-08-29T17:30:48.050Z,3.07
2022-08-29T17:33:22.362Z,3.30
2022-08-29T17:35:49.329Z,2.93
2022-08-29T17:38:16.865Z,3.20
2022-08-29T17:40:49.748Z,3.63
2022-08-29T17:43:22.080Z,3.20
2022-08-29T17:45:59.497Z,3.93
2022-08-29T17:48:31.929Z,3.73
2022-08-29T17:50:59.435Z,3.27
2022-08-29T17:53:34.384Z,3.13
2022-08-29T17:56:44.830Z,3.37
2022-08-29T17:59:13.090Z,3.20
2022-08-29T18:01:49.478Z,2.57
2022-08-29T18:04:17.710Z,3.20
2022-08-29T18:06:47.205Z,3.07
2022-08-29T18:09:14.814Z,3.50
2022-08-29T18:11:45.301Z,3.20
2022-08-29T18:14:12.327Z,3.43
2022-08-29T18:16:55.560Z,3.37
2022-08-29T18:19:27.002Z,3.63
2022-08-29T18:21:54.155Z,3.47
2022-08-29T18:24:24.066Z,3.50
2022-08-29T18:26:51.296Z,3.57
2022-08-29T18:29:19.240Z,3.60
2022-08-29T18:31:46.014Z,3.00
2022-08-29T18:34:12.993Z,2.93
2022-08-29T18:36:44.369Z,3.40
2022-08-29T18:39:15.409Z,3.00
2022-08-29T18:41:42.243Z,3.13
2022-08-29T18:44:10.068Z,3.20
2022-08-29T18:46:37.019Z,2.70
2022-08-29T18:49:03.702Z,2.80
2022-08-29T18:51:33.838Z,2.90
2022-08-29T18:54:00.613Z,3.20
2022-08-29T18:56:27.618Z,3.30
2022-08-29T18:58:58.542Z,3.53
2022-08-29T19:01:28.641Z,3.60
2022-08-29T19:04:02.582Z,3.50
2022-08-29T19:06:29.311Z,3.70
2022-08-29T19:08:56.647Z,3.33
2022-08-29T19:11:23.691Z,3.20
2022-08-29T19:13:52.630Z,3.60
2022-08-29T19:16:21.206Z,3.13
2022-08-29T19:18:49.362Z,3.13
2022-08-29T19:21:16.323Z,2.70
2022-08-29T19:23:52.104Z,3.20
2022-08-29T19:26:25.911Z,3.20
2022-08-29T19:28:56.641Z,2.87
2022-08-29T19:31:27.832Z,2.53
2022-08-29T19:33:57.422Z,2.80
2022-08-29T19:36:25.059Z,2.77
2022-08-29T19:38:51.866Z,3.00
2022-08-29T19:41:18.742Z,2.87
2022-08-29T19:43:45.624Z,3.10
2022-08-29T19:46:20.863Z,2.87
2022-08-29T19:48:51.280Z,2.80
2022-08-29T19:51:19.918Z,2.87
2022-08-29T19:53:50.988Z,2.70
2022-08-29T19:56:18.237Z,2.60
2022-08-29T19:58:45.309Z,2.70
2022-08-29T20:01:19.356Z,2.80
2022-08-29T20:03:46.253Z,3.17
2022-08-29T20:06:15.875Z,2.20
2022-08-29T20:08:47.993Z,3.20
2022-08-29T20:11:21.151Z,2.73
2022-08-29T20:13:51.149Z,3.20
2022-08-29T20:16:22.715Z,3.23
2022-08-29T20:18:50.351Z,3.00
2022-08-29T20:21:19.286Z,3.17
2022-08-29T20:23:52.838Z,2.70
2022-08-29T20:26:24.000Z,2.90
2022-08-29T20:28:52.057Z,3.10
2022-08-29T20:31:19.721Z,2.90
2022-08-29T20:33:48.252Z,2.80
2022-08-29T20:36:38.268Z,3.17
2022-08-29T20:39:06.908Z,3.10
2022-08-29T20:41:35.679Z,2.90
2022-08-29T20:44:07.019Z,2.63
2022-08-29T20:46:39.509Z,3.10
2022-08-29T20:49:10.046Z,3.30
2022-08-29T20:51:37.457Z,3.03
2022-08-29T20:54:04.308Z,2.70
2022-08-29T20:56:31.101Z,2.57
2022-08-29T20:58:57.996Z,3.07
2022-08-29T21:01:27.349Z,2.80
2022-08-29T21:04:12.784Z,3.23
2022-08-29T21:06:39.445Z,3.17
2022-08-29T21:09:06.525Z,3.27
2022-08-29T21:11:33.403Z,3.30
2022-08-29T21:14:00.531Z,3.00
2022-08-29T21:16:29.549Z,2.80
2022-08-29T21:18:56.279Z,2.90
2022-08-29T21:21:24.849Z,3.00
2022-08-29T21:23:52.035Z,3.13
2022-08-29T21:26:18.924Z,3.40
2022-08-29T21:28:47.247Z,3.50
2022-08-29T21:31:16.724Z,3.10
2022-08-29T21:33:46.439Z,2.77
2022-08-29T21:36:20.798Z,3.10
2022-08-29T21:38:48.902Z,2.80
2022-08-29T21:41:18.020Z,2.70
2022-08-29T21:43:47.483Z,2.80
2022-08-29T21:46:19.814Z,2.60
2022-08-29T21:48:47.267Z,2.50
2022-08-29T21:51:17.942Z,2.70
2022-08-29T21:53:47.375Z,2.80
2022-08-29T21:56:14.094Z,2.97
2022-08-29T21:58:41.035Z,2.73
2022-08-29T22:01:11.261Z,2.70
2022-08-29T22:03:38.893Z,2.60
2022-08-29T22:06:07.080Z,2.63
2022-08-29T22:08:34.226Z,2.90
2022-08-29T22:11:01.332Z,2.50
2022-08-29T22:13:28.011Z,2.93
2022-08-29T22:16:13.359Z,2.57
2022-08-29T22:18:40.045Z,2.90
2022-08-29T22:21:06.766Z,2.97
2022-08-29T22:23:33.442Z,3.20
2022-08-29T22:26:00.112Z,2.73
2022-08-29T22:28:27.190Z,2.70
2022-08-29T22:30:55.265Z,3.07
2022-08-29T22:33:22.337Z,2.83
2022-08-29T22:35:49.012Z,2.87
2022-08-29T22:38:15.688Z,2.80
2022-08-29T22:40:44.360Z,3.00
2022-08-29T22:43:18.407Z,3.00
2022-08-29T22:45:45.090Z,3.10
2022-08-29T22:48:13.157Z,3.00
2022-08-29T22:50:45.893Z,2.87
2022-08-29T22:53:26.005Z,3.20
2022-08-29T22:55:52.769Z,3.03
2022-08-29T22:58:19.390Z,3.13
2022-08-29T23:00:46.132Z,2.90
2022-08-29T23:03:12.951Z,3.00
2022-08-29T23:05:39.724Z,3.10
2022-08-29T23:08:06.431Z,3.03
2022-08-29T23:10:34.038Z,3.37
2022-08-29T23:13:00.653Z,3.13
2022-08-29T23:15:27.366Z,3.50
2022-08-29T23:17:54.040Z,3.23
2022-08-29T23:20:20.690Z,2.83
2022-08-29T23:22:47.311Z,3.17
2022-08-29T23:25:15.829Z,3.17
2022-08-29T23:27:42.424Z,3.43
2022-08-29T23:30:11.479Z,2.77
2022-08-29T23:32:38.363Z,2.83
2022-08-29T23:35:09.519Z,3.17
2022-08-29T23:37:36.169Z,3.03
2022-08-29T23:40:03.783Z,2.93
2022-08-29T23:42:31.409Z,3.40
2022-08-29T23:44:58.055Z,3.27
2022-08-29T23:47:24.730Z,3.40
2022-08-29T23:49:51.420Z,3.27
2022-08-29T23:52:18.132Z,3.50
2022-08-29T23:54:44.807Z,3.27
2022-08-29T23:57:11.749Z,3.20
2022-08-29T23:59:57.240Z,3.20
